createdAt,value
2018-05-09T00:01:33.382Z,14.99
2018-05-09T00:04:02.010Z,14.50
2018-05-09T00:06:30.629Z,14.40
2018-05-09T00:08:59.271Z,14.35
2018-05-09T00:11:27.913Z,14.33
2018-05-09T00:13:59.293Z,14.31
2018-05-09T00:16:31.448Z,14.29
2018-05-09T00:19:00.265Z,15.02
2018-05-09T00:21:29.199Z,14.51
2018-05-09T00:23:58.280Z,14.38
2018-05-09T00:26:27.846Z,14.28
2018-05-09T00:28:56.906Z,14.20
2018-05-09T00:31:26.263Z,14.15
2018-05-09T00:33:55.415Z,14.09
2018-05-09T00:36:23.944Z,14.78
2018-05-09T00:38:54.791Z,14.26
2018-05-09T00:41:23.423Z,14.11
2018-05-09T00:43:59.419Z,13.98
2018-05-09T00:46:28.026Z,13.89
2018-05-09T00:48:56.856Z,13.82
2018-05-09T00:51:25.468Z,13.78
2018-05-09T00:53:54.121Z,14.49
2018-05-09T00:56:23.772Z,13.95
2018-05-09T00:58:52.404Z,13.86
2018-05-09T01:01:21.015Z,13.83
2018-05-09T01:03:49.673Z,13.80
2018-05-09T01:06:18.295Z,14.51
2018-05-09T01:08:54.314Z,14.00
2018-05-09T01:11:22.949Z,13.85
2018-05-09T01:13:51.568Z,13.74
2018-05-09T01:16:20.209Z,13.64
2018-05-09T01:18:48.812Z,13.59
2018-05-09T01:21:17.454Z,13.55
2018-05-09T01:23:46.079Z,13.50
2018-05-09T01:26:14.786Z,14.20
2018-05-09T01:28:43.330Z,13.64
2018-05-09T01:31:11.971Z,13.48
2018-05-09T01:33:40.590Z,14.17
2018-05-09T01:36:09.256Z,13.58
2018-05-09T01:38:39.968Z,14.18
2018-05-09T01:41:08.605Z,13.62
2018-05-09T01:43:37.216Z,13.52
2018-05-09T01:46:05.848Z,13.46
2018-05-09T01:48:34.468Z,13.39
2018-05-09T01:51:03.153Z,13.34
2018-05-09T01:53:31.776Z,13.29
2018-05-09T01:56:00.435Z,13.25
2018-05-09T01:58:29.080Z,13.22
2018-05-09T02:00:57.715Z,13.20
2018-05-09T02:03:26.373Z,13.19
2018-05-09T02:05:54.992Z,13.17
2018-05-09T02:08:23.633Z,13.16
2018-05-09T02:10:52.406Z,13.15
2018-05-09T02:13:21.046Z,13.16
2018-05-09T02:15:49.676Z,13.87
2018-05-09T02:18:18.318Z,13.38
2018-05-09T02:20:46.958Z,13.99
2018-05-09T02:23:15.634Z,13.49
2018-05-09T02:25:44.253Z,13.39
2018-05-09T02:28:12.901Z,13.32
2018-05-09T02:30:41.508Z,13.23
2018-05-09T02:33:10.157Z,13.20
2018-05-09T02:35:38.767Z,13.16
2018-05-09T02:38:07.410Z,13.10
2018-05-09T02:40:36.273Z,13.07
2018-05-09T02:43:04.881Z,13.03
2018-05-09T02:45:33.528Z,12.98
2018-05-09T02:48:02.161Z,12.92
2018-05-09T02:50:30.808Z,12.89
2018-05-09T02:52:59.482Z,12.85
2018-05-09T02:55:28.124Z,12.81
2018-05-09T02:57:56.744Z,13.52
2018-05-09T03:00:25.399Z,12.99
2018-05-09T03:02:54.058Z,13.61
2018-05-09T03:05:22.701Z,13.06
2018-05-09T03:07:51.343Z,12.90
2018-05-09T03:10:19.980Z,13.56
2018-05-09T03:12:48.589Z,13.04
2018-05-09T03:15:17.246Z,12.90
2018-05-09T03:17:46.020Z,12.81
2018-05-09T03:20:14.687Z,13.50
2018-05-09T03:22:44.927Z,13.64
2018-05-09T03:25:13.829Z,13.06
2018-05-09T03:27:44.316Z,12.90
2018-05-09T03:30:14.803Z,12.81
2018-05-09T03:32:43.674Z,12.76
2018-05-09T03:35:12.565Z,12.68
2018-05-09T03:37:41.205Z,13.34
2018-05-09T03:40:09.866Z,12.68
2018-05-09T03:42:38.508Z,12.45
2018-05-09T03:45:07.155Z,12.30
2018-05-09T03:47:35.794Z,13.05
2018-05-09T03:50:04.424Z,12.40
2018-05-09T03:52:33.042Z,12.30
2018-05-09T03:55:01.630Z,12.27
2018-05-09T03:57:30.643Z,12.26
2018-05-09T03:59:59.244Z,12.29
2018-05-09T04:03:05.168Z,12.32
2018-05-09T04:06:10.799Z,12.19
2018-05-09T04:09:16.911Z,12.10
2018-05-09T04:11:45.870Z,12.06
2018-05-09T04:14:14.681Z,12.09
2018-05-09T04:16:43.875Z,12.15
2018-05-09T04:19:12.944Z,12.20
2018-05-09T04:21:41.782Z,12.29
2018-05-09T04:24:10.974Z,12.37
2018-05-09T04:26:39.740Z,12.43
2018-05-09T04:29:08.823Z,12.47
2018-05-09T04:31:38.454Z,12.49
2018-05-09T04:34:07.349Z,12.51
2018-05-09T04:36:36.518Z,12.55
2018-05-09T04:39:05.289Z,13.44
2018-05-09T04:41:34.349Z,12.92
2018-05-09T04:44:03.536Z,12.85
2018-05-09T04:46:32.514Z,12.88
2018-05-09T04:49:01.286Z,12.93
2018-05-09T04:51:30.213Z,13.00
2018-05-09T04:53:58.842Z,13.09
2018-05-09T04:56:27.437Z,13.21
2018-05-09T04:58:56.043Z,13.33
2018-05-09T05:01:24.678Z,13.45
2018-05-09T05:03:53.277Z,13.55
2018-05-09T05:06:21.919Z,13.67
2018-05-09T05:08:50.529Z,13.78
2018-05-09T05:11:19.185Z,13.88
2018-05-09T05:13:50.238Z,14.00
2018-05-09T05:16:18.888Z,14.12
2018-05-09T05:18:47.493Z,15.02
2018-05-09T05:21:16.127Z,14.66
2018-05-09T05:23:44.736Z,14.73
2018-05-09T05:26:13.380Z,14.82
2018-05-09T05:28:41.977Z,14.94
2018-05-09T05:31:10.590Z,15.07
2018-05-09T05:33:39.245Z,15.18
2018-05-09T05:36:07.848Z,16.03
2018-05-09T05:38:36.477Z,15.67
2018-05-09T05:41:05.094Z,16.42
2018-05-09T05:43:33.729Z,16.03
2018-05-09T05:46:02.352Z,16.04
2018-05-09T05:48:30.988Z,16.85
2018-05-09T05:50:59.590Z,16.43
2018-05-09T05:53:28.234Z,16.45
2018-05-09T05:55:56.848Z,16.51
2018-05-09T05:58:25.483Z,16.59
2018-05-09T06:00:54.082Z,16.73
2018-05-09T06:03:22.748Z,16.82
2018-05-09T06:05:51.359Z,16.97
2018-05-09T06:08:19.962Z,17.07
2018-05-09T06:10:48.597Z,17.18
2018-05-09T06:13:17.197Z,17.33
2018-05-09T06:15:45.978Z,17.49
2018-05-09T06:18:14.576Z,17.66
2018-05-09T06:20:43.413Z,17.83
2018-05-09T06:23:14.893Z,17.98
2018-05-09T06:25:43.541Z,18.03
2018-05-09T06:28:12.168Z,18.06
2018-05-09T06:30:40.810Z,18.89
2018-05-09T06:33:09.443Z,18.50
2018-05-09T06:35:38.099Z,19.67
2018-05-09T06:38:06.745Z,19.41
2018-05-09T06:40:35.447Z,19.60
2018-05-09T06:43:04.027Z,20.05
2018-05-09T06:45:32.938Z,20.47
2018-05-09T06:48:01.525Z,20.76
2018-05-09T06:50:30.133Z,20.90
2018-05-09T06:52:58.792Z,21.03
2018-05-09T06:55:27.401Z,21.18
2018-05-09T06:57:56.054Z,21.30
2018-05-09T07:00:24.666Z,21.38
2018-05-09T07:02:53.319Z,21.52
2018-05-09T07:05:21.928Z,21.63
2018-05-09T07:07:50.590Z,21.76
2018-05-09T07:10:19.195Z,21.98
2018-05-09T07:12:47.825Z,23.04
2018-05-09T07:15:18.700Z,22.50
2018-05-09T07:17:48.330Z,22.58
2018-05-09T07:20:16.964Z,22.66
2018-05-09T07:22:45.617Z,22.65
2018-05-09T07:25:14.216Z,22.80
2018-05-09T07:27:42.865Z,22.93
2018-05-09T07:30:11.488Z,23.10
2018-05-09T07:32:40.181Z,23.18
2018-05-09T07:35:08.815Z,23.35
2018-05-09T07:37:37.439Z,23.55
2018-05-09T07:40:06.072Z,23.67
2018-05-09T07:42:34.715Z,23.82
2018-05-09T07:45:05.865Z,23.95
2018-05-09T07:47:34.501Z,24.09
2018-05-09T07:50:03.144Z,24.17
2018-05-09T07:52:31.773Z,24.35
2018-05-09T07:55:00.412Z,24.52
2018-05-09T07:57:29.040Z,24.53
2018-05-09T07:59:57.684Z,24.57
2018-05-09T08:02:26.310Z,24.67
2018-05-09T08:04:54.963Z,24.87
2018-05-09T08:07:23.592Z,25.09
2018-05-09T08:09:52.247Z,25.15
2018-05-09T08:12:20.851Z,25.21
2018-05-09T08:14:49.446Z,26.35
2018-05-09T08:17:19.586Z,25.95
2018-05-09T08:19:48.422Z,26.11
2018-05-09T08:22:19.025Z,26.28
2018-05-09T08:24:47.769Z,26.17
2018-05-09T08:27:16.853Z,26.08
2018-05-09T08:29:47.048Z,26.24
2018-05-09T08:32:17.055Z,26.49
2018-05-09T08:34:46.897Z,27.80
2018-05-09T08:37:17.652Z,27.02
2018-05-09T08:39:46.549Z,27.02
2018-05-09T08:42:17.915Z,26.94
2018-05-09T08:44:50.527Z,26.78
2018-05-09T08:47:22.616Z,26.79
2018-05-09T08:49:57.334Z,26.99
2018-05-09T08:52:34.627Z,27.21
2018-05-09T08:55:06.646Z,27.26
2018-05-09T08:57:40.320Z,28.52
2018-05-09T09:00:10.723Z,27.38
2018-05-09T09:02:42.716Z,27.07
2018-05-09T09:05:15.587Z,26.96
2018-05-09T09:07:44.831Z,27.13
2018-05-09T09:10:13.557Z,27.20
2018-05-09T09:12:46.481Z,27.35
2018-05-09T09:15:17.267Z,27.45
2018-05-09T09:17:47.481Z,27.56
2018-05-09T09:20:17.726Z,27.68
2018-05-09T09:22:47.755Z,27.59
2018-05-09T09:25:19.801Z,28.79
2018-05-09T09:27:49.974Z,27.68
2018-05-09T09:30:22.854Z,28.47
2018-05-09T09:32:55.239Z,28.35
2018-05-09T09:35:25.593Z,27.29
2018-05-09T09:38:08.959Z,27.13
2018-05-09T09:40:39.321Z,26.91
2018-05-09T09:43:10.810Z,26.78
2018-05-09T09:45:45.795Z,26.72
2018-05-09T09:53:57.280Z,27.21
2018-05-09T09:56:26.370Z,27.39
2018-05-09T09:58:59.988Z,27.75
2018-05-09T10:01:33.025Z,28.13
2018-05-09T10:04:10.800Z,28.25
2018-05-09T10:06:44.485Z,28.03
2018-05-09T10:09:17.121Z,27.77
2018-05-09T10:11:49.238Z,27.89
2018-05-09T10:14:21.143Z,27.83
2018-05-09T10:16:52.587Z,27.86
2018-05-09T10:19:24.038Z,28.13
2018-05-09T10:21:56.705Z,28.39
2018-05-09T10:24:31.759Z,28.66
2018-05-09T10:27:03.510Z,30.26
2018-05-09T10:29:43.338Z,29.41
2018-05-09T10:35:07.251Z,29.20
2018-05-09T10:37:36.859Z,29.15
2018-05-09T10:40:07.060Z,29.19
2018-05-09T10:42:45.434Z,29.12
2018-05-09T10:48:05.932Z,28.61
2018-05-09T10:50:42.176Z,30.27
2018-05-09T10:53:14.366Z,29.56
2018-05-09T10:55:52.114Z,29.75
2018-05-09T10:58:33.628Z,29.85
2018-05-09T11:01:07.247Z,30.05
2018-05-09T11:06:27.824Z,30.62
2018-05-09T11:09:06.257Z,30.52
2018-05-09T11:11:45.200Z,30.58
2018-05-09T11:17:07.106Z,32.46
2018-05-09T11:19:44.937Z,32.94
2018-05-09T11:25:05.201Z,32.29
2018-05-09T11:27:34.966Z,32.38
2018-05-09T11:30:04.422Z,32.28
2018-05-09T11:32:33.963Z,32.02
2018-05-09T11:35:09.153Z,31.96
2018-05-09T11:37:38.165Z,32.15
2018-05-09T11:40:08.709Z,32.46
2018-05-09T11:42:37.525Z,32.72
2018-05-09T11:45:06.199Z,32.70
2018-05-09T11:47:36.905Z,32.68
2018-05-09T11:50:06.821Z,32.71
2018-05-09T11:52:52.264Z,32.56
2018-05-09T11:55:21.114Z,32.57
2018-05-09T12:00:37.379Z,32.19
2018-05-09T12:03:09.865Z,32.21
2018-05-09T12:05:38.896Z,32.13
2018-05-09T12:08:08.205Z,31.99
2018-05-09T12:10:36.978Z,31.91
2018-05-09T12:13:05.606Z,32.02
2018-05-09T12:15:34.327Z,32.11
2018-05-09T12:20:51.903Z,32.04
2018-05-09T12:23:21.082Z,32.11
2018-05-09T12:25:50.148Z,32.23
2018-05-09T12:28:21.155Z,32.23
2018-05-09T12:30:57.145Z,33.82
2018-05-09T12:33:31.764Z,31.93
2018-05-09T12:36:07.411Z,31.35
2018-05-09T12:41:25.834Z,30.80
2018-05-09T12:44:10.138Z,30.35
2018-05-09T12:46:40.499Z,30.33
2018-05-09T12:49:09.299Z,30.39
2018-05-09T12:51:39.253Z,30.66
2018-05-09T12:56:55.471Z,30.73
2018-05-09T12:59:25.087Z,30.66
2018-05-09T13:01:54.118Z,32.15
2018-05-09T13:04:23.159Z,31.28
2018-05-09T13:06:53.998Z,31.20
2018-05-09T13:09:30.846Z,32.38
2018-05-09T13:12:03.380Z,31.39
2018-05-09T13:14:34.608Z,31.16
2018-05-09T13:17:08.187Z,30.98
2018-05-09T13:19:40.583Z,32.23
2018-05-09T13:22:09.538Z,32.13
2018-05-09T13:24:38.234Z,30.97
2018-05-09T13:27:06.974Z,30.68
2018-05-09T13:29:37.853Z,30.61
2018-05-09T13:32:07.598Z,30.72
2018-05-09T13:34:37.213Z,30.88
2018-05-09T13:37:25.042Z,32.29
2018-05-09T13:42:49.517Z,31.22
2018-05-09T13:48:11.416Z,31.12
2018-05-09T13:50:43.221Z,31.27
2018-05-09T13:56:09.192Z,31.40
2018-05-09T13:58:40.639Z,32.74
2018-05-09T14:01:11.879Z,32.10
2018-05-09T14:03:50.888Z,32.03
2018-05-09T14:06:20.053Z,31.85
2018-05-09T14:08:52.376Z,31.95
2018-05-09T14:11:29.083Z,31.92
2018-05-09T14:13:58.729Z,32.04
2018-05-09T14:16:27.447Z,32.14
2018-05-09T14:18:58.117Z,32.25
2018-05-09T14:21:26.777Z,32.30
2018-05-09T14:24:03.941Z,32.39
2018-05-09T14:26:33.702Z,32.38
2018-05-09T14:29:05.098Z,32.46
2018-05-09T14:34:21.676Z,32.41
2018-05-09T14:36:50.932Z,32.38
2018-05-09T14:39:23.908Z,32.39
2018-05-09T14:41:53.023Z,32.39
2018-05-09T14:44:23.749Z,32.43
2018-05-09T14:47:03.599Z,33.33
2018-05-09T14:49:39.303Z,32.46
2018-05-09T14:52:09.228Z,32.51
2018-05-09T14:57:28.622Z,33.16
2018-05-09T15:00:10.377Z,33.73
2018-05-09T15:02:42.032Z,34.47
2018-05-09T15:05:10.919Z,35.09
2018-05-09T15:07:39.554Z,36.86
2018-05-09T15:10:08.239Z,36.01
2018-05-09T15:12:36.900Z,36.02
2018-05-09T15:15:06.095Z,36.30
2018-05-09T15:20:30.223Z,36.51
2018-05-09T15:23:16.117Z,36.72
2018-05-09T15:25:50.940Z,38.37
2018-05-09T15:28:25.186Z,37.45
2018-05-09T15:33:52.332Z,37.42
2018-05-09T15:36:22.754Z,37.58
2018-05-09T15:38:55.269Z,37.74
2018-05-09T15:41:28.431Z,37.34
2018-05-09T15:43:58.843Z,37.27
2018-05-09T15:46:28.125Z,37.25
2018-05-09T15:48:57.101Z,37.07
2018-05-09T15:51:26.207Z,37.22
2018-05-09T15:53:55.426Z,37.39
2018-05-09T15:56:25.368Z,37.59
2018-05-09T15:58:54.402Z,37.72
2018-05-09T16:01:25.809Z,37.81
2018-05-09T16:03:54.680Z,37.96
2018-05-09T16:06:24.144Z,38.00
2018-05-09T16:08:53.357Z,38.00
2018-05-09T16:11:22.287Z,37.92
2018-05-09T16:13:50.969Z,37.59
2018-05-09T16:16:19.562Z,37.43
2018-05-09T16:18:48.240Z,37.39
2018-05-09T16:21:17.019Z,37.27
2018-05-09T16:23:48.779Z,37.07
2018-05-09T16:26:15.300Z,36.78
2018-05-09T16:29:05.068Z,36.57
2018-05-09T16:31:38.293Z,36.43
2018-05-09T16:34:07.044Z,38.15
2018-05-09T16:36:40.926Z,36.85
2018-05-09T16:39:07.743Z,36.68
2018-05-09T16:41:36.467Z,36.64
2018-05-09T16:44:05.494Z,36.51
2018-05-09T16:46:37.117Z,36.51
2018-05-09T16:49:05.866Z,36.60
2018-05-09T16:51:34.559Z,36.73
2018-05-09T16:54:12.052Z,36.78
2018-05-09T16:56:40.807Z,36.80
2018-05-09T16:59:25.044Z,36.10
2018-05-09T17:01:54.043Z,35.18
2018-05-09T17:04:22.635Z,36.92
2018-05-09T17:06:54.750Z,35.89
2018-05-09T17:12:08.853Z,35.84
2018-05-09T17:14:42.409Z,35.93
2018-05-09T17:17:11.109Z,35.91
2018-05-09T17:19:39.857Z,35.87
2018-05-09T17:22:37.989Z,35.77
2018-05-09T17:25:08.519Z,35.64
2018-05-09T17:27:37.483Z,35.39
2018-05-09T17:30:07.247Z,35.22
2018-05-09T17:32:36.887Z,36.87
2018-05-09T17:46:15.954Z,33.80
2018-05-09T17:48:46.353Z,32.92
2018-05-09T17:51:15.100Z,31.98
2018-05-09T17:56:48.250Z,30.43
2018-05-09T18:27:18.791Z,25.77
2018-05-09T19:30:53.704Z,22.74
2018-05-09T20:04:23.017Z,20.83
2018-05-09T20:18:27.438Z,21.22
2018-05-09T20:20:58.192Z,20.58
2018-05-09T21:25:08.396Z,18.50
2018-05-09T21:27:38.202Z,18.39
2018-05-09T21:30:09.160Z,19.13
2018-05-09T21:32:38.311Z,19.23
2018-05-09T21:35:09.810Z,19.30
2018-05-09T21:37:44.868Z,18.62
2018-05-09T21:40:14.177Z,18.40
2018-05-09T21:42:46.208Z,18.27
2018-05-09T21:45:15.368Z,19.04
2018-05-09T21:47:53.032Z,18.46
2018-05-09T21:50:23.345Z,18.30
2018-05-09T21:52:52.494Z,18.15
2018-05-09T21:55:27.611Z,17.98
2018-05-09T21:57:58.168Z,17.76
2018-05-09T22:00:35.598Z,17.61
2018-05-09T22:03:04.654Z,17.51
2018-05-09T22:05:34.235Z,17.46
2018-05-09T22:08:13.652Z,17.45
2018-05-09T22:10:42.825Z,17.43
2018-05-09T22:13:13.387Z,17.42
2018-05-09T22:15:43.242Z,17.41
2018-05-09T22:21:01.511Z,17.41
2018-05-09T22:23:34.695Z,17.43
2018-05-09T22:26:05.419Z,17.43
2018-05-09T22:28:35.372Z,17.43
2018-05-09T22:31:07.719Z,17.43
2018-05-09T22:36:28.836Z,17.47
2018-05-09T22:41:53.410Z,17.15
2018-05-09T22:44:40.470Z,17.11
2018-05-09T22:47:15.412Z,17.12
2018-05-09T22:49:44.529Z,17.14
2018-05-09T22:55:08.597Z,17.05
2018-05-09T22:57:34.455Z,17.07
2018-05-09T23:00:09.953Z,17.94
2018-05-09T23:02:47.237Z,17.46
2018-05-09T23:05:18.630Z,17.45
2018-05-09T23:07:49.288Z,17.51
2018-05-09T23:10:20.323Z,17.56
2018-05-09T23:12:51.112Z,17.56
2018-05-09T23:15:27.160Z,17.57
2018-05-09T23:20:52.406Z,17.57
2018-05-09T23:23:24.870Z,17.61
2018-05-09T23:25:55.664Z,18.43
2018-05-09T23:28:25.615Z,17.95
2018-05-09T23:42:14.858Z,17.82
2018-05-09T23:53:09.640Z,18.93
